Emerald 1 — JI3670 — position and weather

sailwx.info

Track history (hours):
 
Tides and Currents Weather Stations Pressure Air Temp Water Temp Dewpoint Dewpoint Depression Visibility Wind Speed Wind Dir Waves Ship Positions

Emerald 1

Last reported at 2017-Oct-18 07:45 UTC. Time now 2017-Oct-19 01:28 UTC.
Position N 34°37' E 134°57'.

Length 118 m; draft 4.2 m.

Type: Other ship. MMSI: 431301484.

Date/timePositionNaut miles runAvg speedWind from/ knotsBaromVisibWave heightAir tempDewpointWater temp
2017-Oct-18 07:45N 34°37' E 134°57'7 7.2
2017-Oct-18 06:49N 34°36' E 135°05'3 8.3
2017-Oct-18 06:30N 34°37' E 135°08'4 8.5
2017-Oct-18 06:00N 34°37' E 135°13'4 8.0
2017-Oct-18 05:30N 34°39' E 135°18'2 4.3
2017-Oct-18 05:00N 34°41' E 135°17'0 0.0
2017-Oct-18 04:19N 34°41' E 135°17'0 0.1
2017-Oct-18 03:49N 34°41' E 135°17'0 0.0
2017-Oct-18 03:25N 34°41' E 135°17'0 0.1
2017-Oct-18 02:55N 34°41' E 135°17'0 0.0
2017-Oct-18 02:25N 34°41' E 135°17'0 0.0
2017-Oct-18 02:00N 34°41' E 135°17'3 6.5
2017-Oct-18 01:30N 34°39' E 135°20'4 7.2
2017-Oct-18 01:00N 34°39' E 135°25'1 1.6
2017-Oct-18 00:30N 34°39' E 135°26'1 1.4
2017-Oct-18 00:01N 34°39' E 135°25'1 1.2
2017-Oct-17 23:25N 34°39' E 135°24'0 0.0
2017-Oct-17 22:49N 34°39' E 135°24'2 5.6
2017-Oct-17 22:30N 34°38' E 135°22'3 6.9
2017-Oct-17 22:00N 34°36' E 135°19'3 6.9
2017-Oct-17 21:30N 34°39' E 135°16'2 3.7
2017-Oct-17 21:00N 34°40' E 135°14'0 0.0
2017-Oct-17 20:29N 34°40' E 135°14'0 0.0
2017-Oct-17 19:59N 34°40' E 135°14'0 0.0
2017-Oct-17 19:29N 34°40' E 135°14'0 0.0
2017-Oct-17 18:59N 34°40' E 135°14'0 0.0
2017-Oct-17 18:23N 34°40' E 135°14'0 0.0
2017-Oct-17 17:59N 34°40' E 135°14'0 0.0
2017-Oct-17 17:23N 34°40' E 135°14'0 0.0
2017-Oct-17 16:59N 34°40' E 135°14'0 0.0
2017-Oct-17 16:23N 34°40' E 135°14'0 0.0
2017-Oct-17 15:59N 34°40' E 135°14'0 0.0
2017-Oct-17 15:17N 34°40' E 135°14'0 0.0
2017-Oct-17 14:59N 34°40' E 135°14'0 0.0
2017-Oct-17 14:23N 34°40' E 135°14'0 0.0
2017-Oct-17 13:59N 34°40' E 135°14'0 0.0
2017-Oct-17 13:29N 34°40' E 135°14'0 0.0
2017-Oct-17 12:59N 34°40' E 135°14'0 0.2
2017-Oct-17 12:30N 34°40' E 135°14'3 5.0
2017-Oct-17 12:00N 34°37' E 135°13'4 7.5
2017-Oct-17 11:30N 34°36' E 135°09'4 7.9
2017-Oct-17 11:00N 34°35' E 135°05'3 5.7
2017-Oct-17 10:29N 34°37' E 135°02'2 4.6
2017-Oct-17 10:00N 34°37' E 134°59'3 6.6
2017-Oct-17 09:30N 34°35' E 134°55'1 0.0
2017-Oct-15 08:08N 34°37' E 134°56'210.0
2017-Oct-15 07:58N 34°37' E 134°57'510.4
2017-Oct-15 07:30N 34°36' E 135°03'4 8.5
2017-Oct-15 07:00N 34°37' E 135°08'4 8.5
2017-Oct-15 06:30N 34°37' E 135°13'3 5.3
2017-Oct-15 06:00N 34°40' E 135°14'0 0.2
2017-Oct-15 05:18N 34°40' E 135°14'0 0.0
2017-Oct-15 05:00N 34°40' E 135°14'0 0.0
2017-Oct-15 04:30N 34°40' E 135°14'0 0.0
2017-Oct-15 04:00N 34°40' E 135°14'0 0.0
2017-Oct-15 03:30N 34°40' E 135°14'0 0.0
2017-Oct-15 03:00N 34°40' E 135°14'0 0.0
2017-Oct-15 02:30N 34°40' E 135°14'0 0.0
2017-Oct-15 02:00N 34°40' E 135°14'0 0.0
2017-Oct-15 01:30N 34°40' E 135°14'0 0.0
2017-Oct-15 01:00N 34°40' E 135°14'0 0.0
2017-Oct-15 00:24N 34°40' E 135°14'0 0.0
2017-Oct-15 00:00N 34°40' E 135°14'0 0.0
2017-Oct-14 23:30N 34°40' E 135°14'0 0.0
2017-Oct-14 23:00N 34°40' E 135°14'0 0.0
2017-Oct-14 22:30N 34°40' E 135°14'0 0.0
2017-Oct-14 22:00N 34°40' E 135°14'0 0.0
2017-Oct-14 21:30N 34°40' E 135°14'0 0.0
2017-Oct-14 21:00N 34°40' E 135°14'0 0.0
2017-Oct-14 20:24N 34°40' E 135°14'0 0.0
2017-Oct-14 20:00N 34°40' E 135°14'0 0.0
2017-Oct-14 19:30N 34°40' E 135°14'0 0.0
2017-Oct-14 18:54N 34°40' E 135°14'0 0.0
2017-Oct-14 18:30N 34°40' E 135°14'0 0.0
2017-Oct-14 18:00N 34°40' E 135°14'0 0.0
2017-Oct-14 17:24N 34°40' E 135°14'0 0.0
2017-Oct-14 16:54N 34°40' E 135°14'0 0.0
2017-Oct-14 16:30N 34°40' E 135°14'0 0.0
2017-Oct-14 15:48N 34°40' E 135°14'0 0.0
2017-Oct-14 15:24N 34°40' E 135°14'0 0.0
2017-Oct-14 14:54N 34°40' E 135°14'0 0.0
2017-Oct-14 14:24N 34°40' E 135°14'0 0.0
2017-Oct-14 14:00N 34°40' E 135°14'0 0.0
2017-Oct-14 13:30N 34°40' E 135°14'0 0.0
2017-Oct-14 13:00N 34°40' E 135°14'0 0.0
2017-Oct-14 12:06N 34°40' E 135°14'0 0.0
2017-Oct-14 12:00N 34°40' E 135°14'0 0.0
2017-Oct-14 11:18N 34°40' E 135°14'0 0.0
2017-Oct-14 11:00N 34°40' E 135°14'0 0.0
2017-Oct-14 10:30N 34°40' E 135°14'0 0.0
2017-Oct-14 09:54N 34°40' E 135°14'0 0.0
2017-Oct-14 09:30N 34°40' E 135°14'0 0.0
2017-Oct-14 09:00N 34°40' E 135°14'0 0.0
2017-Oct-14 08:30N 34°40' E 135°14'0 0.0
2017-Oct-14 08:00N 34°40' E 135°14'0 0.0
2017-Oct-14 07:30N 34°40' E 135°14'0 0.0
2017-Oct-14 07:00N 34°40' E 135°14'0 0.0
2017-Oct-14 06:30N 34°40' E 135°14'0 0.0
2017-Oct-14 05:54N 34°40' E 135°14'0 0.0
2017-Oct-14 05:30N 34°40' E 135°14'1 2.9
2017-Oct-14 05:00N 34°41' E 135°15'0 0.2
2017-Oct-14 04:29N 34°41' E 135°15'0 0.0
2017-Oct-14 03:59N 34°41' E 135°15'0 0.0
2017-Oct-14 03:23N 34°41' E 135°15'2 4.4
2017-Oct-14 03:00N 34°39' E 135°15'3 7.0
2017-Oct-14 02:30N 34°37' E 135°13'4 8.7
2017-Oct-14 02:00N 34°35' E 135°08'5 9.1
2017-Oct-14 01:30N 34°36' E 135°02'710.0
2017-Oct-14 00:49N 34°35' E 134°54'  
2017-Oct-11 00:00N 34°38' E 135°24'0 0.7
2017-Oct-10 23:20N 34°39' E 135°24'0 0.0
2017-Oct-10 22:56N 34°39' E 135°24'1 2.2
2017-Oct-10 22:30N 34°38' E 135°23'1 2.9
2017-Oct-10 21:59N 34°37' E 135°22'0 0.0
2017-Oct-10 21:29N 34°37' E 135°22'0 0.0
2017-Oct-10 20:53N 34°37' E 135°22'0 0.0
2017-Oct-10 20:23N 34°37' E 135°22'0 0.0
2017-Oct-10 19:59N 34°37' E 135°22'1 3.1
2017-Oct-10 19:30N 34°36' E 135°21'4 7.7
2017-Oct-10 19:00N 34°35' E 135°16'4 7.8
2017-Oct-10 18:30N 34°35' E 135°12'4 8.3
2017-Oct-10 18:00N 34°35' E 135°07'4 8.8
2017-Oct-10 17:30N 34°36' E 135°02'4 8.5
2017-Oct-10 17:00N 34°36' E 134°57'4 7.9
2017-Oct-10 16:30N 34°34' E 134°52'4 7.2
2017-Oct-10 16:00N 34°33' E 134°48'7 0.2
2017-Oct-09 02:44N 34°36' E 134°56'2 7.8
2017-Oct-09 02:30N 34°37' E 134°58'6 9.2
2017-Oct-09 01:47N 34°36' E 135°06'2 8.1
2017-Oct-09 01:29N 34°36' E 135°09'4 8.1
2017-Oct-09 01:00N 34°37' E 135°13'4 7.9
2017-Oct-09 00:30N 34°39' E 135°18'3 5.5
2017-Oct-09 00:00N 34°41' E 135°19'2 4.2
2017-Oct-08 23:29N 34°43' E 135°18'0 0.0
2017-Oct-08 22:59N 34°43' E 135°18'0 0.0
2017-Oct-08 22:29N 34°43' E 135°18'0 0.0
2017-Oct-08 21:59N 34°43' E 135°18'0 0.0
2017-Oct-08 21:23N 34°43' E 135°18'0 0.0
2017-Oct-08 20:59N 34°43' E 135°18'0 0.0
2017-Oct-08 20:29N 34°43' E 135°18'0 0.0
2017-Oct-08 19:41N 34°43' E 135°18'0 0.0
2017-Oct-08 19:29N 34°43' E 135°18'0 0.0
2017-Oct-08 18:53N 34°43' E 135°18'0 0.0
2017-Oct-08 18:29N 34°43' E 135°18'0 0.0
2017-Oct-08 17:59N 34°43' E 135°18'0 0.0
2017-Oct-08 17:23N 34°43' E 135°18'0 0.0
2017-Oct-08 16:59N 34°43' E 135°18'0 0.0
2017-Oct-08 16:23N 34°43' E 135°18'0 0.0
2017-Oct-08 15:47N 34°43' E 135°18'0 0.0
2017-Oct-08 15:29N 34°43' E 135°18'0 0.0
2017-Oct-08 14:59N 34°43' E 135°18'0 0.0
2017-Oct-08 14:29N 34°43' E 135°18'0 0.0
2017-Oct-08 13:59N 34°43' E 135°18'0 0.0
2017-Oct-08 13:29N 34°43' E 135°18'0 0.0
2017-Oct-08 12:59N 34°43' E 135°18'0 0.0
2017-Oct-08 12:29N 34°43' E 135°18'0 0.0
2017-Oct-08 11:59N 34°43' E 135°18'0 0.0
2017-Oct-08 11:29N 34°43' E 135°18'0 0.0
2017-Oct-08 10:59N 34°43' E 135°18'0 0.0
2017-Oct-08 10:29N 34°43' E 135°18'0 0.0
2017-Oct-08 09:59N 34°43' E 135°18'0 0.0
2017-Oct-08 09:29N 34°43' E 135°18'0 0.0
2017-Oct-08 08:59N 34°43' E 135°18'0 0.0
2017-Oct-08 08:29N 34°43' E 135°18'0 0.0
2017-Oct-08 07:59N 34°43' E 135°18'  
Track history (hours):
 
Tides and Currents Weather Stations Pressure Air Temp Water Temp Dewpoint Dewpoint Depression Visibility Wind Speed Wind Dir Waves Ship Positions

Emerald 1

Last reported at 2017-Oct-18 07:45 UTC. Time now 2017-Oct-19 01:28 UTC.
Position N 34°37' E 134°57'.

Length 118 m; draft 4.2 m.

Type: Other ship. MMSI: 431301484.

Date/timePositionNaut miles runAvg speedWind from/ knotsBaromVisibWave heightAir tempDewpointWater temp
2017-Oct-18 07:45N 34°37' E 134°57'7 7.2
2017-Oct-18 06:49N 34°36' E 135°05'3 8.3
2017-Oct-18 06:30N 34°37' E 135°08'4 8.5
2017-Oct-18 06:00N 34°37' E 135°13'4 8.0
2017-Oct-18 05:30N 34°39' E 135°18'2 4.3
2017-Oct-18 05:00N 34°41' E 135°17'0 0.0
2017-Oct-18 04:19N 34°41' E 135°17'0 0.1
2017-Oct-18 03:49N 34°41' E 135°17'0 0.0
2017-Oct-18 03:25N 34°41' E 135°17'0 0.1
2017-Oct-18 02:55N 34°41' E 135°17'0 0.0
2017-Oct-18 02:25N 34°41' E 135°17'0 0.0
2017-Oct-18 02:00N 34°41' E 135°17'3 6.5
2017-Oct-18 01:30N 34°39' E 135°20'4 7.2
2017-Oct-18 01:00N 34°39' E 135°25'1 1.6
2017-Oct-18 00:30N 34°39' E 135°26'1 1.4
2017-Oct-18 00:01N 34°39' E 135°25'1 1.2
2017-Oct-17 23:25N 34°39' E 135°24'0 0.0
2017-Oct-17 22:49N 34°39' E 135°24'2 5.6
2017-Oct-17 22:30N 34°38' E 135°22'3 6.9
2017-Oct-17 22:00N 34°36' E 135°19'3 6.9
2017-Oct-17 21:30N 34°39' E 135°16'2 3.7
2017-Oct-17 21:00N 34°40' E 135°14'0 0.0
2017-Oct-17 20:29N 34°40' E 135°14'0 0.0
2017-Oct-17 19:59N 34°40' E 135°14'0 0.0
2017-Oct-17 19:29N 34°40' E 135°14'0 0.0
2017-Oct-17 18:59N 34°40' E 135°14'0 0.0
2017-Oct-17 18:23N 34°40' E 135°14'0 0.0
2017-Oct-17 17:59N 34°40' E 135°14'0 0.0
2017-Oct-17 17:23N 34°40' E 135°14'0 0.0
2017-Oct-17 16:59N 34°40' E 135°14'0 0.0
2017-Oct-17 16:23N 34°40' E 135°14'0 0.0
2017-Oct-17 15:59N 34°40' E 135°14'0 0.0
2017-Oct-17 15:17N 34°40' E 135°14'0 0.0
2017-Oct-17 14:59N 34°40' E 135°14'0 0.0
2017-Oct-17 14:23N 34°40' E 135°14'0 0.0
2017-Oct-17 13:59N 34°40' E 135°14'0 0.0
2017-Oct-17 13:29N 34°40' E 135°14'0 0.0
2017-Oct-17 12:59N 34°40' E 135°14'0 0.2
2017-Oct-17 12:30N 34°40' E 135°14'3 5.0
2017-Oct-17 12:00N 34°37' E 135°13'4 7.5
2017-Oct-17 11:30N 34°36' E 135°09'4 7.9
2017-Oct-17 11:00N 34°35' E 135°05'3 5.7
2017-Oct-17 10:29N 34°37' E 135°02'2 4.6
2017-Oct-17 10:00N 34°37' E 134°59'3 6.6
2017-Oct-17 09:30N 34°35' E 134°55'1 0.0
2017-Oct-15 08:08N 34°37' E 134°56'210.0
2017-Oct-15 07:58N 34°37' E 134°57'510.4
2017-Oct-15 07:30N 34°36' E 135°03'4 8.5
2017-Oct-15 07:00N 34°37' E 135°08'4 8.5
2017-Oct-15 06:30N 34°37' E 135°13'3 5.3
2017-Oct-15 06:00N 34°40' E 135°14'0 0.2
2017-Oct-15 05:18N 34°40' E 135°14'0 0.0
2017-Oct-15 05:00N 34°40' E 135°14'0 0.0
2017-Oct-15 04:30N 34°40' E 135°14'0 0.0
2017-Oct-15 04:00N 34°40' E 135°14'0 0.0
2017-Oct-15 03:30N 34°40' E 135°14'0 0.0
2017-Oct-15 03:00N 34°40' E 135°14'0 0.0
2017-Oct-15 02:30N 34°40' E 135°14'0 0.0
2017-Oct-15 02:00N 34°40' E 135°14'0 0.0
2017-Oct-15 01:30N 34°40' E 135°14'0 0.0
2017-Oct-15 01:00N 34°40' E 135°14'0 0.0
2017-Oct-15 00:24N 34°40' E 135°14'0 0.0
2017-Oct-15 00:00N 34°40' E 135°14'0 0.0
2017-Oct-14 23:30N 34°40' E 135°14'0 0.0
2017-Oct-14 23:00N 34°40' E 135°14'0 0.0
2017-Oct-14 22:30N 34°40' E 135°14'0 0.0
2017-Oct-14 22:00N 34°40' E 135°14'0 0.0
2017-Oct-14 21:30N 34°40' E 135°14'0 0.0
2017-Oct-14 21:00N 34°40' E 135°14'0 0.0
2017-Oct-14 20:24N 34°40' E 135°14'0 0.0
2017-Oct-14 20:00N 34°40' E 135°14'0 0.0
2017-Oct-14 19:30N 34°40' E 135°14'0 0.0
2017-Oct-14 18:54N 34°40' E 135°14'0 0.0
2017-Oct-14 18:30N 34°40' E 135°14'0 0.0
2017-Oct-14 18:00N 34°40' E 135°14'0 0.0
2017-Oct-14 17:24N 34°40' E 135°14'0 0.0
2017-Oct-14 16:54N 34°40' E 135°14'0 0.0
2017-Oct-14 16:30N 34°40' E 135°14'0 0.0
2017-Oct-14 15:48N 34°40' E 135°14'0 0.0
2017-Oct-14 15:24N 34°40' E 135°14'0 0.0
2017-Oct-14 14:54N 34°40' E 135°14'0 0.0
2017-Oct-14 14:24N 34°40' E 135°14'0 0.0
2017-Oct-14 14:00N 34°40' E 135°14'0 0.0
2017-Oct-14 13:30N 34°40' E 135°14'0 0.0
2017-Oct-14 13:00N 34°40' E 135°14'0 0.0
2017-Oct-14 12:06N 34°40' E 135°14'0 0.0
2017-Oct-14 12:00N 34°40' E 135°14'0 0.0
2017-Oct-14 11:18N 34°40' E 135°14'0 0.0
2017-Oct-14 11:00N 34°40' E 135°14'0 0.0
2017-Oct-14 10:30N 34°40' E 135°14'0 0.0
2017-Oct-14 09:54N 34°40' E 135°14'0 0.0
2017-Oct-14 09:30N 34°40' E 135°14'0 0.0
2017-Oct-14 09:00N 34°40' E 135°14'0 0.0
2017-Oct-14 08:30N 34°40' E 135°14'0 0.0
2017-Oct-14 08:00N 34°40' E 135°14'0 0.0
2017-Oct-14 07:30N 34°40' E 135°14'0 0.0
2017-Oct-14 07:00N 34°40' E 135°14'0 0.0
2017-Oct-14 06:30N 34°40' E 135°14'0 0.0
2017-Oct-14 05:54N 34°40' E 135°14'0 0.0
2017-Oct-14 05:30N 34°40' E 135°14'1 2.9
2017-Oct-14 05:00N 34°41' E 135°15'0 0.2
2017-Oct-14 04:29N 34°41' E 135°15'0 0.0
2017-Oct-14 03:59N 34°41' E 135°15'0 0.0
2017-Oct-14 03:23N 34°41' E 135°15'2 4.4
2017-Oct-14 03:00N 34°39' E 135°15'3 7.0
2017-Oct-14 02:30N 34°37' E 135°13'4 8.7
2017-Oct-14 02:00N 34°35' E 135°08'5 9.1
2017-Oct-14 01:30N 34°36' E 135°02'710.0
2017-Oct-14 00:49N 34°35' E 134°54'  
2017-Oct-11 00:00N 34°38' E 135°24'0 0.7
2017-Oct-10 23:20N 34°39' E 135°24'0 0.0
2017-Oct-10 22:56N 34°39' E 135°24'1 2.2
2017-Oct-10 22:30N 34°38' E 135°23'1 2.9
2017-Oct-10 21:59N 34°37' E 135°22'0 0.0
2017-Oct-10 21:29N 34°37' E 135°22'0 0.0
2017-Oct-10 20:53N 34°37' E 135°22'0 0.0
2017-Oct-10 20:23N 34°37' E 135°22'0 0.0
2017-Oct-10 19:59N 34°37' E 135°22'1 3.1
2017-Oct-10 19:30N 34°36' E 135°21'4 7.7
2017-Oct-10 19:00N 34°35' E 135°16'4 7.8
2017-Oct-10 18:30N 34°35' E 135°12'4 8.3
2017-Oct-10 18:00N 34°35' E 135°07'4 8.8
2017-Oct-10 17:30N 34°36' E 135°02'4 8.5
2017-Oct-10 17:00N 34°36' E 134°57'4 7.9
2017-Oct-10 16:30N 34°34' E 134°52'4 7.2
2017-Oct-10 16:00N 34°33' E 134°48'7 0.2
2017-Oct-09 02:44N 34°36' E 134°56'2 7.8
2017-Oct-09 02:30N 34°37' E 134°58'6 9.2
2017-Oct-09 01:47N 34°36' E 135°06'2 8.1
2017-Oct-09 01:29N 34°36' E 135°09'4 8.1
2017-Oct-09 01:00N 34°37' E 135°13'4 7.9
2017-Oct-09 00:30N 34°39' E 135°18'3 5.5
2017-Oct-09 00:00N 34°41' E 135°19'2 4.2
2017-Oct-08 23:29N 34°43' E 135°18'0 0.0
2017-Oct-08 22:59N 34°43' E 135°18'0 0.0
2017-Oct-08 22:29N 34°43' E 135°18'0 0.0
2017-Oct-08 21:59N 34°43' E 135°18'0 0.0
2017-Oct-08 21:23N 34°43' E 135°18'0 0.0
2017-Oct-08 20:59N 34°43' E 135°18'0 0.0
2017-Oct-08 20:29N 34°43' E 135°18'0 0.0
2017-Oct-08 19:41N 34°43' E 135°18'0 0.0
2017-Oct-08 19:29N 34°43' E 135°18'0 0.0
2017-Oct-08 18:53N 34°43' E 135°18'0 0.0
2017-Oct-08 18:29N 34°43' E 135°18'0 0.0
2017-Oct-08 17:59N 34°43' E 135°18'0 0.0
2017-Oct-08 17:23N 34°43' E 135°18'0 0.0
2017-Oct-08 16:59N 34°43' E 135°18'0 0.0
2017-Oct-08 16:23N 34°43' E 135°18'0 0.0
2017-Oct-08 15:47N 34°43' E 135°18'0 0.0
2017-Oct-08 15:29N 34°43' E 135°18'0 0.0
2017-Oct-08 14:59N 34°43' E 135°18'0 0.0
2017-Oct-08 14:29N 34°43' E 135°18'0 0.0
2017-Oct-08 13:59N 34°43' E 135°18'0 0.0
2017-Oct-08 13:29N 34°43' E 135°18'0 0.0
2017-Oct-08 12:59N 34°43' E 135°18'0 0.0
2017-Oct-08 12:29N 34°43' E 135°18'0 0.0
2017-Oct-08 11:59N 34°43' E 135°18'0 0.0
2017-Oct-08 11:29N 34°43' E 135°18'0 0.0
2017-Oct-08 10:59N 34°43' E 135°18'0 0.0
2017-Oct-08 10:29N 34°43' E 135°18'0 0.0
2017-Oct-08 09:59N 34°43' E 135°18'0 0.0
2017-Oct-08 09:29N 34°43' E 135°18'0 0.0
2017-Oct-08 08:59N 34°43' E 135°18'0 0.0
2017-Oct-08 08:29N 34°43' E 135°18'0 0.0
2017-Oct-08 07:59N 34°43' E 135°18'  

Dump ship's entire track history